createdAt,value
2022-10-26T00:01:33.789Z,80.38
2022-10-26T00:04:03.145Z,79.94
2022-10-26T00:06:32.043Z,79.92
2022-10-26T00:09:01.196Z,79.99
2022-10-26T00:11:30.252Z,79.84
2022-10-26T00:13:59.434Z,80.15
2022-10-26T00:16:29.650Z,80.57
2022-10-26T00:18:59.020Z,80.64
2022-10-26T00:21:28.094Z,80.81
2022-10-26T00:23:57.947Z,80.88
2022-10-26T00:26:27.051Z,80.91
2022-10-26T00:28:58.471Z,80.72
2022-10-26T00:31:27.664Z,80.51
2022-10-26T00:33:57.800Z,80.53
2022-10-26T00:36:27.830Z,80.67
2022-10-26T00:38:58.418Z,80.79
2022-10-26T00:41:31.971Z,80.55
2022-10-26T00:44:01.765Z,80.85
2022-10-26T00:46:37.547Z,81.00
2022-10-26T00:49:14.659Z,81.02
2022-10-26T00:51:48.137Z,81.10
2022-10-26T00:54:20.030Z,81.10
2022-10-26T00:56:52.844Z,81.41
2022-10-26T00:59:24.247Z,81.67
2022-10-26T01:01:57.089Z,81.33
2022-10-26T01:04:31.202Z,81.69
2022-10-26T01:07:08.219Z,81.60
2022-10-26T01:09:40.640Z,81.24
2022-10-26T01:12:12.303Z,81.33
2022-10-26T01:14:43.820Z,81.26
2022-10-26T01:17:32.108Z,81.13
2022-10-26T01:20:06.668Z,81.49
2022-10-26T01:22:43.029Z,81.55
2022-10-26T01:25:29.104Z,81.52
2022-10-26T01:27:59.824Z,81.36
2022-10-26T01:30:42.238Z,81.45
2022-10-26T01:33:49.913Z,81.68
2022-10-26T01:36:54.704Z,81.57
2022-10-26T01:39:40.591Z,81.37
2022-10-26T01:42:12.981Z,81.72
2022-10-26T01:44:44.253Z,81.41
2022-10-26T01:47:16.934Z,81.91
2022-10-26T01:49:54.423Z,82.21
2022-10-26T01:52:24.320Z,82.21
2022-10-26T01:54:53.400Z,82.27
2022-10-26T01:57:23.380Z,82.23
2022-10-26T01:59:55.899Z,82.44
2022-10-26T02:03:00.031Z,82.41
2022-10-26T02:05:46.019Z,82.25
2022-10-26T02:08:42.530Z,82.18
2022-10-26T02:11:14.578Z,82.50
2022-10-26T02:13:54.071Z,82.51
2022-10-26T02:16:46.697Z,82.38
2022-10-26T02:19:42.174Z,82.48
2022-10-26T02:22:48.965Z,82.80
2022-10-26T02:25:27.202Z,83.34
2022-10-26T02:28:08.233Z,82.85
2022-10-26T02:30:39.105Z,82.50
2022-10-26T02:33:11.997Z,81.92
2022-10-26T02:35:41.620Z,81.24
2022-10-26T02:38:13.047Z,81.26
2022-10-26T02:40:43.374Z,81.19
2022-10-26T02:43:16.838Z,82.91
2022-10-26T02:45:50.576Z,84.13
2022-10-26T02:48:20.772Z,84.05
2022-10-26T02:51:01.567Z,83.89
2022-10-26T02:53:46.160Z,83.04
2022-10-26T02:56:44.280Z,82.76
2022-10-26T02:59:16.648Z,82.08
2022-10-26T03:01:46.909Z,81.48
2022-10-26T03:04:16.467Z,81.07
2022-10-26T03:06:54.710Z,79.35
2022-10-26T03:09:25.551Z,79.68
2022-10-26T03:11:55.168Z,79.45
2022-10-26T03:14:24.408Z,79.29
2022-10-26T03:16:53.891Z,78.49
2022-10-26T03:19:22.773Z,77.92
2022-10-26T03:21:52.162Z,77.53
2022-10-26T03:24:21.198Z,78.62
2022-10-26T03:26:50.943Z,78.69
2022-10-26T03:29:20.097Z,77.02
2022-10-26T03:31:49.988Z,76.41
2022-10-26T03:34:19.841Z,76.47
2022-10-26T03:36:49.741Z,76.54
2022-10-26T03:39:18.880Z,76.35
2022-10-26T03:41:49.295Z,75.93
2022-10-26T03:44:18.518Z,75.81
2022-10-26T03:46:47.430Z,75.25
2022-10-26T03:49:16.869Z,74.47
2022-10-26T03:51:46.137Z,73.58
2022-10-26T03:56:45.114Z,71.71
2022-10-26T03:59:14.383Z,71.49
2022-10-26T04:01:43.852Z,71.15
2022-10-26T04:04:13.530Z,70.99
2022-10-26T04:06:43.147Z,70.75
2022-10-26T04:09:12.243Z,69.40
2022-10-26T04:11:41.526Z,68.50
2022-10-26T04:14:10.727Z,68.16
2022-10-26T04:19:44.385Z,66.63
2022-10-26T04:22:15.211Z,66.10
2022-10-26T04:24:45.190Z,61.15
2022-10-26T04:27:14.385Z,59.57
2022-10-26T04:29:43.869Z,60.70
2022-10-26T04:32:13.110Z,60.68
2022-10-26T04:34:42.178Z,58.92
2022-10-26T04:37:11.705Z,56.35
2022-10-26T04:39:40.887Z,56.55
2022-10-26T04:42:10.052Z,55.77
2022-10-26T04:44:39.079Z,53.92
2022-10-26T04:47:08.867Z,53.36
2022-10-26T04:49:38.236Z,53.56
2022-10-26T04:52:07.965Z,52.37
2022-10-26T04:54:37.240Z,52.91
2022-10-26T04:57:06.758Z,53.06
2022-10-26T04:59:35.858Z,52.37
2022-10-26T05:02:05.199Z,53.25
2022-10-26T05:04:34.476Z,53.15
2022-10-26T05:07:04.280Z,53.35
2022-10-26T05:09:33.416Z,51.96
2022-10-26T05:12:02.813Z,51.60
2022-10-26T05:14:31.985Z,50.57
2022-10-26T05:17:01.246Z,51.77
2022-10-26T05:19:30.463Z,51.91
2022-10-26T05:21:59.402Z,51.21
2022-10-26T05:24:28.798Z,50.66
2022-10-26T05:26:57.838Z,49.93
2022-10-26T05:29:26.948Z,49.02
2022-10-26T05:31:56.275Z,49.48
2022-10-26T05:34:25.557Z,49.30
2022-10-26T05:36:55.721Z,48.99
2022-10-26T05:39:24.912Z,49.12
2022-10-26T05:41:54.180Z,48.88
2022-10-26T05:44:23.968Z,50.28
2022-10-26T05:46:53.145Z,50.42
2022-10-26T05:49:22.229Z,49.83
2022-10-26T05:51:51.545Z,47.43
2022-10-26T05:54:23.886Z,49.12
2022-10-26T05:56:52.734Z,47.26
2022-10-26T05:59:22.076Z,47.35
2022-10-26T06:01:57.024Z,47.53
2022-10-26T06:04:44.789Z,48.51
2022-10-26T06:07:17.395Z,47.45
2022-10-26T06:09:49.353Z,47.05
2022-10-26T06:12:19.847Z,47.20
2022-10-26T06:14:49.781Z,45.90
2022-10-26T06:17:47.843Z,45.81
2022-10-26T06:20:43.470Z,46.32
2022-10-26T06:23:44.644Z,47.05
2022-10-26T06:26:58.248Z,47.34
2022-10-26T06:29:57.875Z,47.13
2022-10-26T06:32:27.569Z,45.02
2022-10-26T06:35:21.743Z,45.15
2022-10-26T06:37:53.095Z,44.74
2022-10-26T06:40:24.697Z,44.19
2022-10-26T06:42:54.620Z,44.50
2022-10-26T06:45:24.320Z,45.10
2022-10-26T06:48:03.807Z,45.66
2022-10-26T06:50:51.838Z,46.23
2022-10-26T06:53:28.289Z,45.48
2022-10-26T06:56:00.820Z,44.29
2022-10-26T06:58:36.266Z,44.72
2022-10-26T07:01:05.959Z,45.28
2022-10-26T07:03:35.110Z,43.78
2022-10-26T07:06:04.159Z,45.19
2022-10-26T07:08:43.429Z,43.29
2022-10-26T07:11:13.877Z,41.76
2022-10-26T07:13:43.020Z,42.38
2022-10-26T07:16:12.018Z,41.11
2022-10-26T07:18:41.710Z,42.29
2022-10-26T07:21:11.555Z,42.93
2022-10-26T07:23:41.041Z,42.62
2022-10-26T07:26:10.737Z,42.22
2022-10-26T07:28:43.353Z,42.12
2022-10-26T07:31:13.079Z,42.25
2022-10-26T07:33:43.901Z,41.42
2022-10-26T07:36:13.876Z,41.16
2022-10-26T07:38:43.446Z,40.07
2022-10-26T07:41:12.520Z,40.95
2022-10-26T07:43:41.678Z,40.97
2022-10-26T07:46:10.965Z,41.11
2022-10-26T07:48:40.789Z,39.37
2022-10-26T07:51:10.658Z,40.89
2022-10-26T07:53:39.700Z,39.65
2022-10-26T07:56:09.718Z,38.84
2022-10-26T07:58:39.240Z,39.90
2022-10-26T08:01:14.126Z,40.86
2022-10-26T08:03:44.395Z,39.23
2022-10-26T08:06:14.632Z,38.97
2022-10-26T08:08:46.638Z,38.85
2022-10-26T08:11:17.750Z,39.80
2022-10-26T08:13:47.446Z,38.31
2022-10-26T08:16:16.946Z,38.37
2022-10-26T08:18:45.852Z,39.55
2022-10-26T08:21:21.655Z,39.40
2022-10-26T08:23:55.720Z,39.46
2022-10-26T08:26:25.556Z,39.19
2022-10-26T08:28:55.136Z,38.83
2022-10-26T08:31:24.845Z,39.13
2022-10-26T08:33:54.161Z,38.76
2022-10-26T08:36:28.699Z,37.78
2022-10-26T08:41:54.448Z,38.34
2022-10-26T08:44:30.525Z,39.37
2022-10-26T08:47:23.794Z,38.34
2022-10-26T08:50:04.120Z,40.25
2022-10-26T08:53:04.686Z,39.44
2022-10-26T08:55:52.914Z,39.85
2022-10-26T08:58:27.547Z,39.73
2022-10-26T09:00:57.500Z,39.38
2022-10-26T09:03:26.762Z,39.38
2022-10-26T09:06:43.176Z,40.21
2022-10-26T09:09:22.543Z,39.97
2022-10-26T09:12:18.200Z,39.08
2022-10-26T09:14:47.340Z,39.70
2022-10-26T09:17:19.272Z,39.95
2022-10-26T09:19:57.127Z,39.51
2022-10-26T09:22:45.283Z,39.40
2022-10-26T09:25:21.030Z,38.51
2022-10-26T09:28:19.639Z,39.85
2022-10-26T09:30:49.963Z,39.97
2022-10-26T09:33:25.870Z,39.30
2022-10-26T09:36:02.634Z,39.24
2022-10-26T09:38:40.613Z,37.56
2022-10-26T09:41:42.486Z,37.34
2022-10-26T09:44:46.799Z,37.99
2022-10-26T09:47:34.726Z,37.91
2022-10-26T09:50:32.867Z,37.72
2022-10-26T09:53:02.361Z,38.59
2022-10-26T09:55:34.337Z,38.74
2022-10-26T09:58:08.591Z,38.63
2022-10-26T10:00:40.185Z,39.66
2022-10-26T10:03:23.275Z,38.94
2022-10-26T10:05:53.133Z,39.45
2022-10-26T10:08:28.438Z,40.22
2022-10-26T10:11:05.545Z,40.33
2022-10-26T10:13:38.579Z,40.72
2022-10-26T10:16:22.678Z,40.45
2022-10-26T10:18:58.189Z,41.00
2022-10-26T10:21:44.750Z,40.94
2022-10-26T10:24:29.484Z,41.12
2022-10-26T10:27:17.640Z,41.47
2022-10-26T10:29:56.429Z,41.40
2022-10-26T10:32:35.595Z,40.72
2022-10-26T10:35:31.258Z,40.57
2022-10-26T10:38:00.683Z,40.17
2022-10-26T10:40:33.042Z,40.66
2022-10-26T10:43:06.716Z,39.80
2022-10-26T10:45:37.514Z,40.71
2022-10-26T10:48:22.300Z,41.02
2022-10-26T10:51:22.520Z,41.21
2022-10-26T10:53:54.602Z,41.33
2022-10-26T10:56:34.355Z,41.48
2022-10-26T10:59:21.262Z,42.14
2022-10-26T11:02:03.213Z,42.12
2022-10-26T11:04:54.827Z,41.88
2022-10-26T11:07:27.460Z,42.04
2022-10-26T11:09:58.897Z,43.01
2022-10-26T11:15:14.600Z,42.94
2022-10-26T11:18:12.061Z,42.60
2022-10-26T11:20:52.699Z,42.42
2022-10-26T11:23:33.639Z,43.63
2022-10-26T11:26:17.151Z,43.03
2022-10-26T11:29:04.760Z,43.48
2022-10-26T11:31:44.240Z,44.42
2022-10-26T11:34:25.518Z,44.89
2022-10-26T11:37:05.427Z,44.66
2022-10-26T11:40:28.259Z,45.11
2022-10-26T11:43:11.896Z,45.88
2022-10-26T11:45:47.406Z,46.70
2022-10-26T11:48:29.898Z,46.82
2022-10-26T11:51:01.128Z,46.72
2022-10-26T11:53:42.616Z,47.74
2022-10-26T11:56:25.354Z,48.21
2022-10-26T11:58:55.735Z,48.67
2022-10-26T12:01:25.242Z,49.41
2022-10-26T12:03:59.148Z,49.24
2022-10-26T12:06:32.708Z,50.71
2022-10-26T12:09:10.538Z,50.80
2022-10-26T12:11:49.446Z,51.82
2022-10-26T12:14:51.713Z,51.67
2022-10-26T12:17:33.267Z,52.87
2022-10-26T12:20:47.126Z,53.33
2022-10-26T12:23:23.391Z,54.26
2022-10-26T12:26:41.804Z,54.01
2022-10-26T12:29:10.837Z,55.05
2022-10-26T12:31:39.594Z,55.46
2022-10-26T12:34:24.427Z,55.91
2022-10-26T12:36:59.418Z,56.03
2022-10-26T12:39:36.450Z,56.86
2022-10-26T12:42:27.386Z,56.72
2022-10-26T12:44:56.258Z,58.41
2022-10-26T12:47:31.356Z,59.36
2022-10-26T12:50:21.206Z,58.63
2022-10-26T12:52:53.955Z,57.99
2022-10-26T12:55:23.717Z,59.24
2022-10-26T12:58:10.582Z,60.20
2022-10-26T13:00:49.746Z,59.57
2022-10-26T13:03:44.908Z,60.40
2022-10-26T13:06:43.906Z,60.89
2022-10-26T13:09:27.217Z,60.87
2022-10-26T13:11:58.614Z,60.82
2022-10-26T13:14:43.460Z,61.86
2022-10-26T13:17:28.992Z,63.10
2022-10-26T13:20:04.224Z,62.79
2022-10-26T13:22:34.227Z,62.49
2022-10-26T13:25:06.527Z,62.93
2022-10-26T13:27:35.899Z,62.43
2022-10-26T13:30:04.787Z,62.43
2022-10-26T13:32:50.294Z,62.74
2022-10-26T13:35:23.597Z,63.37
2022-10-26T13:37:55.655Z,63.37
2022-10-26T13:40:30.363Z,64.03
2022-10-26T13:43:06.763Z,64.39
2022-10-26T13:45:42.520Z,63.88
2022-10-26T13:48:18.565Z,64.26
2022-10-26T13:50:59.380Z,64.78
2022-10-26T13:54:23.830Z,64.43
2022-10-26T13:57:17.392Z,64.31
2022-10-26T13:59:47.709Z,64.08
2022-10-26T14:02:23.675Z,63.94
2022-10-26T14:05:03.089Z,64.96
2022-10-26T14:07:57.452Z,64.96
2022-10-26T14:10:34.367Z,65.62
2022-10-26T14:13:09.457Z,66.20
2022-10-26T14:15:38.806Z,65.57
2022-10-26T14:18:07.889Z,65.52
2022-10-26T14:20:37.202Z,65.79
2022-10-26T14:23:06.394Z,66.27
2022-10-26T14:25:48.055Z,67.62
2022-10-26T14:28:33.010Z,67.42
2022-10-26T14:31:22.922Z,67.04
2022-10-26T14:33:55.552Z,67.03
2022-10-26T14:36:51.423Z,66.47
2022-10-26T14:39:30.302Z,66.13
2022-10-26T14:42:01.062Z,66.89
2022-10-26T14:44:31.666Z,66.95
2022-10-26T14:47:00.728Z,67.51
2022-10-26T14:49:30.313Z,67.89
2022-10-26T14:52:07.442Z,67.48
2022-10-26T14:54:36.540Z,67.84
2022-10-26T14:57:09.920Z,67.76
2022-10-26T14:59:38.967Z,68.58
2022-10-26T15:02:23.904Z,68.38
2022-10-26T15:05:04.798Z,68.58
2022-10-26T15:07:42.936Z,69.49
2022-10-26T15:10:50.514Z,69.97
2022-10-26T15:13:26.242Z,70.23
2022-10-26T15:15:58.757Z,70.48
2022-10-26T15:18:34.806Z,70.44
2022-10-26T15:21:04.285Z,70.76
2022-10-26T15:23:33.830Z,71.37
2022-10-26T15:26:04.885Z,71.47
2022-10-26T15:28:46.431Z,71.75
2022-10-26T15:31:16.138Z,71.17
2022-10-26T15:33:55.075Z,70.94
2022-10-26T15:36:29.257Z,70.96
2022-10-26T15:39:00.909Z,71.03
2022-10-26T15:41:31.620Z,71.26
2022-10-26T15:44:07.104Z,71.28
2022-10-26T15:46:42.443Z,70.75
2022-10-26T15:49:21.175Z,70.61
2022-10-26T15:51:50.905Z,70.73
2022-10-26T15:54:20.327Z,69.85
2022-10-26T15:56:49.971Z,69.51
2022-10-26T15:59:21.541Z,70.46
2022-10-26T16:01:53.680Z,70.77
2022-10-26T16:04:24.373Z,71.04
2022-10-26T16:06:58.029Z,70.94
2022-10-26T16:09:28.342Z,71.25
2022-10-26T16:11:57.861Z,71.63
2022-10-26T16:14:30.018Z,71.33
2022-10-26T16:17:02.647Z,71.39
2022-10-26T16:19:31.935Z,71.50
2022-10-26T16:22:01.942Z,71.69
2022-10-26T16:24:34.821Z,71.70
2022-10-26T16:27:03.801Z,72.06
2022-10-26T16:29:33.756Z,72.37
2022-10-26T16:32:06.962Z,72.39
2022-10-26T16:34:36.289Z,72.09
2022-10-26T16:37:05.625Z,71.73
2022-10-26T16:39:34.729Z,71.56
2022-10-26T16:42:03.765Z,71.67
2022-10-26T16:44:33.209Z,71.84
2022-10-26T16:47:02.393Z,71.96
2022-10-26T16:49:31.866Z,72.23
2022-10-26T16:52:01.174Z,72.26
2022-10-26T16:54:32.096Z,72.62
2022-10-26T16:57:01.940Z,73.23
2022-10-26T16:59:31.282Z,73.56
2022-10-26T17:02:00.857Z,73.64
2022-10-26T17:04:30.352Z,73.23
2022-10-26T17:06:59.504Z,72.57
2022-10-26T17:09:29.671Z,72.55
2022-10-26T17:12:01.909Z,72.44
2022-10-26T17:14:31.882Z,73.08
2022-10-26T17:17:01.013Z,72.96
2022-10-26T17:19:30.058Z,73.15
2022-10-26T17:21:59.373Z,73.02
2022-10-26T17:24:28.360Z,72.76
2022-10-26T17:26:57.636Z,72.93
2022-10-26T17:29:26.857Z,73.16
2022-10-26T17:31:55.879Z,73.68
2022-10-26T17:34:25.151Z,73.83
2022-10-26T17:36:54.031Z,73.91
2022-10-26T17:39:23.534Z,74.32
2022-10-26T17:41:52.812Z,74.46
2022-10-26T17:44:49.350Z,74.68
2022-10-26T17:47:18.460Z,74.71
2022-10-26T17:49:47.611Z,74.77
2022-10-26T17:52:16.663Z,74.44
2022-10-26T17:54:45.429Z,74.22
2022-10-26T17:57:14.603Z,74.18
2022-10-26T17:59:43.664Z,73.55
2022-10-26T18:02:13.737Z,73.14
2022-10-26T18:04:42.866Z,73.30
2022-10-26T18:07:11.796Z,73.67
2022-10-26T18:09:41.177Z,74.08
2022-10-26T18:12:11.805Z,74.22
2022-10-26T18:14:40.870Z,74.44
2022-10-26T18:17:10.414Z,74.92
2022-10-26T18:19:39.223Z,75.14
2022-10-26T18:22:08.505Z,75.09
2022-10-26T18:24:37.665Z,75.17
2022-10-26T18:27:06.805Z,75.23
2022-10-26T18:29:38.861Z,75.17
2022-10-26T18:32:08.830Z,75.47
2022-10-26T18:34:38.278Z,75.89
2022-10-26T18:37:07.397Z,75.83
2022-10-26T18:39:36.456Z,76.16
2022-10-26T18:42:05.919Z,76.24
2022-10-26T18:44:35.039Z,76.58
2022-10-26T18:47:03.896Z,76.82
2022-10-26T18:49:33.835Z,77.20
2022-10-26T18:52:03.045Z,77.47
2022-10-26T18:54:31.921Z,77.46
2022-10-26T18:57:02.315Z,77.67
2022-10-26T18:59:31.771Z,77.59
2022-10-26T19:02:01.118Z,78.14
2022-10-26T19:04:30.844Z,77.98
2022-10-26T19:07:00.579Z,77.77
2022-10-26T19:09:29.440Z,77.59
2022-10-26T19:12:01.510Z,77.43
2022-10-26T19:14:32.945Z,77.40
2022-10-26T19:17:01.994Z,77.46
2022-10-26T19:19:31.314Z,77.01
2022-10-26T19:22:01.307Z,77.02
2022-10-26T19:24:31.043Z,77.12
2022-10-26T19:27:00.041Z,77.30
2022-10-26T19:29:29.161Z,77.00
2022-10-26T19:31:58.532Z,76.65
2022-10-26T19:34:27.773Z,76.65
2022-10-26T19:36:57.036Z,76.36
2022-10-26T19:39:27.334Z,76.04
2022-10-26T19:41:56.660Z,75.36
2022-10-26T19:44:25.802Z,75.35
2022-10-26T19:46:55.053Z,74.99
2022-10-26T19:49:24.394Z,74.41
2022-10-26T19:51:54.692Z,73.38
2022-10-26T19:54:24.254Z,73.63
2022-10-26T19:56:53.149Z,73.15
2022-10-26T19:59:22.429Z,73.41
2022-10-26T20:01:51.380Z,73.32
2022-10-26T20:04:20.711Z,72.81
2022-10-26T20:06:49.967Z,72.65
2022-10-26T20:09:19.983Z,72.61
2022-10-26T20:11:49.834Z,72.98
2022-10-26T20:14:19.297Z,72.18
2022-10-26T20:16:48.766Z,73.01
2022-10-26T20:19:17.850Z,72.34
2022-10-26T20:21:47.770Z,72.68
2022-10-26T20:24:16.861Z,73.18
2022-10-26T20:26:46.244Z,72.39
2022-10-26T20:29:15.234Z,72.69
2022-10-26T20:31:44.203Z,73.25
2022-10-26T20:34:13.316Z,73.10
2022-10-26T20:36:42.535Z,72.62
2022-10-26T20:39:12.054Z,72.73
2022-10-26T20:41:44.881Z,72.11
2022-10-26T20:44:28.675Z,72.07
2022-10-26T20:46:58.342Z,72.02
2022-10-26T20:49:27.439Z,71.63
2022-10-26T20:52:21.771Z,71.37
2022-10-26T20:55:00.874Z,71.50
2022-10-26T20:57:36.205Z,71.85
2022-10-26T21:00:09.946Z,72.01
2022-10-26T21:02:39.324Z,71.42
2022-10-26T21:05:08.475Z,71.81
2022-10-26T21:07:37.896Z,71.81
2022-10-26T21:10:07.297Z,71.91
2022-10-26T21:12:36.382Z,72.44
2022-10-26T21:15:05.834Z,72.97
2022-10-26T21:17:35.471Z,72.39
2022-10-26T21:20:05.008Z,72.79
2022-10-26T21:22:34.236Z,73.03
2022-10-26T21:25:03.138Z,73.03
2022-10-26T21:27:32.424Z,73.54
2022-10-26T21:30:02.025Z,73.11
2022-10-26T21:32:31.544Z,73.48
2022-10-26T21:35:00.642Z,73.68
2022-10-26T21:37:29.907Z,73.99
2022-10-26T21:39:58.761Z,74.09
2022-10-26T21:42:27.918Z,73.94
2022-10-26T21:44:56.872Z,74.49
2022-10-26T21:47:26.188Z,74.70
2022-10-26T21:49:55.468Z,74.53
2022-10-26T21:52:24.366Z,73.86
2022-10-26T21:54:53.718Z,74.63
2022-10-26T21:57:22.707Z,74.99
2022-10-26T21:59:51.678Z,74.93
2022-10-26T22:02:20.898Z,74.89
2022-10-26T22:04:50.404Z,74.91
2022-10-26T22:07:21.044Z,74.53
2022-10-26T22:10:07.729Z,73.87
2022-10-26T22:12:39.557Z,73.60
2022-10-26T22:15:09.131Z,73.96
2022-10-26T22:17:42.413Z,73.11
2022-10-26T22:20:13.115Z,73.84
2022-10-26T22:22:42.349Z,73.73
2022-10-26T22:25:11.578Z,73.88
2022-10-26T22:27:40.585Z,73.87
2022-10-26T22:30:10.362Z,74.20
2022-10-26T22:32:39.419Z,74.56
2022-10-26T22:35:28.621Z,74.60
2022-10-26T22:37:57.942Z,74.80
2022-10-26T22:40:27.254Z,74.79
2022-10-26T22:42:56.246Z,74.71
2022-10-26T22:45:25.422Z,74.86
2022-10-26T22:47:54.774Z,74.83
2022-10-26T22:50:24.038Z,75.10
2022-10-26T22:52:53.632Z,74.82
2022-10-26T22:55:22.752Z,74.89
2022-10-26T22:57:52.062Z,74.83
2022-10-26T23:00:21.694Z,74.96
2022-10-26T23:02:51.238Z,75.12
2022-10-26T23:05:20.083Z,74.61
2022-10-26T23:07:49.531Z,74.87
2022-10-26T23:10:19.190Z,74.86
2022-10-26T23:12:51.477Z,75.08
2022-10-26T23:15:20.488Z,75.25
2022-10-26T23:17:49.983Z,75.64
2022-10-26T23:20:19.602Z,75.76
2022-10-26T23:22:48.842Z,76.00
2022-10-26T23:25:18.523Z,75.91
2022-10-26T23:27:47.458Z,75.86
2022-10-26T23:30:16.609Z,75.89
2022-10-26T23:32:45.777Z,75.98
2022-10-26T23:35:14.780Z,76.28
2022-10-26T23:37:44.322Z,76.57
2022-10-26T23:40:13.632Z,76.83
2022-10-26T23:42:43.366Z,77.14
2022-10-26T23:45:12.623Z,77.25
2022-10-26T23:47:41.918Z,77.50
2022-10-26T23:50:11.303Z,77.63
2022-10-26T23:52:40.140Z,78.07
2022-10-26T23:55:10.174Z,78.37
2022-10-26T23:57:41.155Z,78.50
